Time;durP1;ratioP1;P1;durP2;ratioP2;P2;SDS_P1;SDS_P2;PMS_P1;PMS_P2;Temp;Humidity;BMP_temperature;BMP_pressure;BME280_temperature;BME280_humidity;BME280_pressure;Samples;Min_cycle;Max_cycle;Signal;HPM_P1;HPM_P2
2022/01/05 00:00:31;;;;;;;11.55;2.20;;;;;;;5.12;100.00;99614.72;5040509;28;20133;-70
2022/01/05 00:02:58;;;;;;;9.60;2.03;;;;;;;5.08;100.00;99607.66;5031928;28;20135;-73
2022/01/05 00:05:24;;;;;;;11.02;2.58;;;;;;;5.09;100.00;99617.44;5042577;28;20087;-72
2022/01/05 00:07:51;;;;;;;16.80;2.40;;;;;;;5.08;100.00;99602.97;5042356;28;20424;-70
2022/01/05 00:10:18;;;;;;;6.75;2.05;;;;;;;5.00;100.00;99598.63;5049089;28;20056;-70
2022/01/05 00:12:44;;;;;;;7.53;2.00;;;;;;;4.97;100.00;99607.63;5040362;28;20049;-70
2022/01/05 00:15:11;;;;;;;13.10;2.50;;;;;;;4.94;100.00;99602.94;5045689;28;20912;-72
2022/01/05 00:17:37;;;;;;;10.63;2.67;;;;;;;4.95;100.00;99609.19;5046790;28;20059;-70
2022/01/05 00:20:05;;;;;;;8.20;1.95;;;;;;;4.95;100.00;99607.25;5036812;28;20421;-71
2022/01/05 00:22:31;;;;;;;8.75;2.13;;;;;;;4.93;100.00;99603.31;5017280;28;20052;-74
2022/01/05 00:24:58;;;;;;;12.68;3.17;;;;;;;4.98;100.00;99611.16;5033337;28;20135;-71
2022/01/05 00:27:24;;;;;;;14.45;3.20;;;;;;;4.97;100.00;99610.34;5044183;28;20124;-70
2022/01/05 00:29:51;;;;;;;12.30;3.03;;;;;;;4.94;100.00;99613.91;5041705;28;20176;-71
2022/01/05 00:32:18;;;;;;;1.85;1.20;;;;;;;4.87;100.00;99610.34;5031586;28;20788;-71
2022/01/05 00:34:44;;;;;;;5.28;2.58;;;;;;;4.80;100.00;99619.28;5044079;28;20052;-73
2022/01/05 00:37:11;;;;;;;0.85;0.75;;;;;;;4.77;100.00;99627.50;5044291;28;20505;-71
2022/01/05 00:39:37;;;;;;;4.85;1.30;;;;;;;4.82;100.00;99625.19;5040379;28;20149;-71
2022/01/05 00:42:05;;;;;;;5.57;2.28;;;;;;;4.78;100.00;99623.59;5035070;28;20432;-71
2022/01/05 00:44:32;;;;;;;15.20;1.80;;;;;;;4.78;100.00;99618.13;5037390;28;20044;-71
2022/01/05 00:46:59;;;;;;;12.23;2.97;;;;;;;4.72;100.00;99609.47;5031881;28;20636;-71
2022/01/05 00:49:26;;;;;;;7.97;2.03;;;;;;;4.71;100.00;99620.81;5039900;28;20053;-71
2022/01/05 00:51:52;;;;;;;0.77;0.55;;;;;;;4.60;100.00;99611.78;5048478;28;20064;-73
2022/01/05 00:54:19;;;;;;;7.00;3.55;;;;;;;4.67;100.00;99620.03;5047421;28;20053;-73
2022/01/05 00:56:45;;;;;;;5.22;2.10;;;;;;;4.62;100.00;99610.22;5049925;28;20140;-71
2022/01/05 00:59:12;;;;;;;2.90;1.98;;;;;;;4.60;100.00;99626.28;5033842;28;20524;-70
2022/01/05 01:01:38;;;;;;;4.07;1.70;;;;;;;4.65;100.00;99616.88;5038531;28;20044;-72
2022/01/05 01:04:06;;;;;;;2.58;1.63;;;;;;;4.54;100.00;99629.75;5035841;28;20060;-70
2022/01/05 01:06:33;;;;;;;17.67;4.32;;;;;;;4.53;100.00;99617.22;5040501;28;20045;-71
2022/01/05 01:08:59;;;;;;;4.90;2.03;;;;;;;4.56;100.00;99636.41;5038239;28;20639;-73
2022/01/05 01:11:26;;;;;;;10.45;3.33;;;;;;;4.55;100.00;99634.03;5035319;28;20152;-71
2022/01/05 01:13:53;;;;;;;15.32;3.40;;;;;;;4.59;100.00;99635.63;5034844;28;20063;-70
2022/01/05 01:16:20;;;;;;;2.50;1.77;;;;;;;4.56;100.00;99639.13;5031206;28;20099;-74
2022/01/05 01:18:46;;;;;;;14.73;4.32;;;;;;;4.62;100.00;99645.03;5039932;28;20060;-71
2022/01/05 01:21:13;;;;;;;14.65;4.65;;;;;;;4.62;100.00;99639.56;5038710;28;20045;-72
2022/01/05 01:23:42;;;;;;;21.00;4.75;;;;;;;4.60;100.00;99633.69;5040347;28;20143;-71
2022/01/05 01:26:09;;;;;;;19.77;4.13;;;;;;;4.60;100.00;99637.22;5040499;28;20048;-73
2022/01/05 01:28:36;;;;;;;15.05;4.65;;;;;;;4.64;100.00;99635.28;5028982;28;20053;-74
2022/01/05 01:31:02;;;;;;;15.90;5.22;;;;;;;4.67;100.00;99647.44;5035136;28;20183;-72
2022/01/05 01:33:29;;;;;;;11.15;3.00;;;;;;;4.60;100.00;99645.44;5039302;28;20056;-71
2022/01/05 01:35:56;;;;;;;16.52;4.70;;;;;;;4.62;100.00;99643.09;5030831;28;20140;-73
2022/01/05 01:38:22;;;;;;;16.95;4.80;;;;;;;4.64;100.00;99651.72;5048438;28;20059;-71
2022/01/05 01:40:49;;;;;;;16.60;4.47;;;;;;;4.57;100.00;99646.22;5029784;28;20132;-71
2022/01/05 01:43:16;;;;;;;16.95;4.43;;;;;;;4.62;100.00;99645.81;5034335;28;20441;-74
2022/01/05 01:45:43;;;;;;;14.80;4.25;;;;;;;4.57;100.00;99643.47;5030116;28;20045;-71
2022/01/05 01:48:10;;;;;;;12.95;3.17;;;;;;;4.56;100.00;99644.63;5047365;28;20060;-71
2022/01/05 01:50:36;;;;;;;19.48;3.75;;;;;;;4.54;100.00;99655.19;5038811;28;20079;-71
2022/01/05 01:53:03;;;;;;;8.35;2.63;;;;;;;4.50;100.00;99654.38;5046307;28;20057;-73
2022/01/05 01:55:29;;;;;;;15.20;3.05;;;;;;;4.54;100.00;99654.38;5041046;28;20382;-73
2022/01/05 01:57:56;;;;;;;14.82;4.13;;;;;;;4.54;100.00;99655.19;5040977;28;20285;-71
2022/01/05 02:00:23;;;;;;;9.95;3.20;;;;;;;4.55;100.00;99661.44;5040487;28;20144;-74
2022/01/05 02:02:50;;;;;;;17.77;3.35;;;;;;;4.55;100.00;99658.69;5031267;28;20057;-74
2022/01/05 02:05:17;;;;;;;21.45;3.58;;;;;;;4.49;100.00;99655.53;5042624;28;20066;-74
2022/01/05 02:07:44;;;;;;;14.93;3.83;;;;;;;4.49;100.00;99657.50;5039918;28;20045;-71
2022/01/05 02:10:11;;;;;;;14.00;3.20;;;;;;;4.47;100.00;99668.84;5036588;28;20045;-71
2022/01/05 02:12:37;;;;;;;18.60;3.72;;;;;;;4.47;100.00;99670.78;5033280;28;20136;-72
2022/01/05 02:15:04;;;;;;;17.08;3.72;;;;;;;4.45;100.00;99665.69;5041121;28;20054;-74
2022/01/05 02:17:45;;;;;;;8.88;2.38;;;;;;;4.32;100.00;99658.94;5026130;28;20056;-72
2022/01/05 02:20:17;;;;;;;13.63;3.47;;;;;;;4.37;100.00;99666.81;5029191;28;20506;-71
2022/01/05 02:22:45;;;;;;;15.43;3.53;;;;;;;4.33;100.00;99671.47;5015902;28;20056;-74
2022/01/05 02:25:12;;;;;;;18.02;4.10;;;;;;;4.35;100.00;99669.13;5030156;28;20478;-71
2022/01/05 02:27:45;;;;;;;22.02;3.90;;;;;;;4.32;100.00;99669.13;5035268;28;20087;-72
2022/01/05 02:30:14;;;;;;;10.13;2.65;;;;;;;4.26;100.00;99673.38;5043027;28;20059;-71
2022/01/05 02:32:41;;;;;;;14.27;3.90;;;;;;;4.28;100.00;99668.28;5027055;28;20136;-71
2022/01/05 02:35:09;;;;;;;8.23;2.65;;;;;;;4.20;100.00;99675.69;5045961;28;20519;-71
2022/01/05 02:37:40;;;;;;;15.55;4.15;;;;;;;4.24;100.00;99676.50;5029007;28;20121;-71
2022/01/05 02:40:10;;;;;;;11.85;3.45;;;;;;;4.19;100.00;99673.31;5031429;28;20060;-73
2022/01/05 02:42:37;;;;;;;14.70;3.50;;;;;;;4.17;100.00;99673.69;5033704;28;20051;-71
2022/01/05 02:45:04;;;;;;;10.88;2.33;;;;;;;4.14;100.00;99673.66;5035285;28;20056;-72
2022/01/05 02:47:31;;;;;;;16.25;4.10;;;;;;;4.16;100.00;99677.63;5027149;28;20050;-71
2022/01/05 02:49:58;;;;;;;13.90;2.13;;;;;;;4.07;100.00;99685.34;5037172;28;20139;-72
2022/01/05 02:52:24;;;;;;;13.63;3.67;;;;;;;4.07;100.00;99670.88;5036403;28;20640;-75
2022/01/05 02:54:51;;;;;;;12.93;3.58;;;;;;;4.06;100.00;99685.72;5033492;28;20136;-71
2022/01/05 02:57:18;;;;;;;14.98;4.13;;;;;;;4.04;100.00;99685.31;5031123;28;20421;-71
2022/01/05 02:59:45;;;;;;;2.55;1.15;;;;;;;3.97;100.00;99693.47;5041518;28;20053;-71
2022/01/05 03:02:11;;;;;;;11.02;3.42;;;;;;;3.98;100.00;99698.56;5032513;28;20057;-70
2022/01/05 03:04:38;;;;;;;11.13;2.67;;;;;;;4.00;100.00;99707.19;5032841;28;20522;-71
2022/01/05 03:07:05;;;;;;;14.40;3.65;;;;;;;3.99;100.00;99702.88;5039781;28;20077;-71
2022/01/05 03:09:31;;;;;;;11.32;3.50;;;;;;;3.95;100.00;99704.00;5046252;28;20105;-72
2022/01/05 03:11:58;;;;;;;18.30;4.30;;;;;;;3.95;100.00;99706.75;5030450;28;20156;-72
2022/01/05 03:14:25;;;;;;;14.18;4.25;;;;;;;3.94;100.00;99707.91;5034445;28;20902;-75
2022/01/05 03:16:52;;;;;;;15.32;3.72;;;;;;;3.93;100.00;99720.81;5039212;28;20041;-73
2022/01/05 03:19:18;;;;;;;10.55;3.75;;;;;;;3.91;100.00;99723.13;5050249;28;20075;-72
2022/01/05 03:21:45;;;;;;;18.80;4.15;;;;;;;3.93;100.00;99722.75;5043548;28;20060;-69
2022/01/05 03:24:11;;;;;;;18.73;5.15;;;;;;;3.93;100.00;99726.28;5044174;28;20059;-71
2022/01/05 03:26:38;;;;;;;15.18;4.05;;;;;;;3.88;100.00;99723.88;5030956;28;20109;-73
2022/01/05 03:29:04;;;;;;;11.77;4.05;;;;;;;3.88;100.00;99725.84;5046533;28;20275;-70
2022/01/05 03:31:31;;;;;;;12.57;3.72;;;;;;;3.84;100.00;99731.25;5039631;28;20509;-72
2022/01/05 03:33:58;;;;;;;15.38;4.25;;;;;;;3.83;100.00;99737.91;5043467;28;20086;-71
2022/01/05 03:36:25;;;;;;;16.90;4.45;;;;;;;3.80;100.00;99738.66;5050154;28;20055;-70
2022/01/05 03:38:52;;;;;;;19.75;4.40;;;;;;;3.79;100.00;99741.75;5046532;28;20052;-71
2022/01/05 03:41:18;;;;;;;22.27;5.30;;;;;;;3.80;100.00;99754.28;5035752;28;20156;-71
2022/01/05 03:43:45;;;;;;;4.18;1.65;;;;;;;3.78;100.00;99756.63;5039626;28;20053;-72
2022/01/05 03:46:11;;;;;;;14.40;4.28;;;;;;;3.74;100.00;99764.78;5045776;28;20117;-71
2022/01/05 03:48:38;;;;;;;11.50;2.63;;;;;;;3.69;100.00;99767.06;5050207;28;20055;-71
2022/01/05 03:51:04;;;;;;;16.48;3.92;;;;;;;3.70;100.00;99777.63;5045970;28;20298;-71
2022/01/05 03:53:31;;;;;;;16.42;3.35;;;;;;;3.73;100.00;99771.41;5040593;28;20136;-75
2022/01/05 03:55:58;;;;;;;17.85;4.10;;;;;;;3.68;100.00;99768.22;5038307;28;20158;-71
2022/01/05 03:58:24;;;;;;;10.13;3.60;;;;;;;3.64;100.00;99779.13;5046113;28;20505;-71
2022/01/05 04:00:51;;;;;;;5.45;2.40;;;;;;;3.61;100.00;99771.66;5035749;28;20144;-71
2022/01/05 04:03:19;;;;;;;15.38;3.45;;;;;;;3.69;100.00;99776.06;5038871;28;20072;-70
2022/01/05 04:05:45;;;;;;;7.82;2.92;;;;;;;3.62;100.00;99789.66;5045755;28;20055;-73
2022/01/05 04:08:12;;;;;;;16.63;4.00;;;;;;;3.60;100.00;99789.25;5042720;28;20156;-71
2022/01/05 04:10:39;;;;;;;18.15;3.67;;;;;;;3.56;100.00;99791.16;5044729;28;20053;-73
2022/01/05 04:13:06;;;;;;;11.02;3.10;;;;;;;3.56;100.00;99796.63;5053753;28;20060;-74
2022/01/05 04:15:33;;;;;;;10.60;3.00;;;;;;;3.56;100.00;99804.81;5034922;28;20051;-71
2022/01/05 04:17:59;;;;;;;9.18;2.45;;;;;;;3.48;100.00;99800.41;5053181;28;20056;-72
2022/01/05 04:20:26;;;;;;;11.98;2.58;;;;;;;3.51;100.00;99810.59;5044530;28;20125;-73
2022/01/05 04:22:52;;;;;;;15.32;2.60;;;;;;;3.50;100.00;99811.78;5038047;28;20084;-71
2022/01/05 04:25:19;;;;;;;18.33;3.45;;;;;;;3.50;100.00;99813.72;5043796;28;20052;-72
2022/01/05 04:27:46;;;;;;;9.23;2.90;;;;;;;3.38;100.00;99822.16;5036684;28;20540;-72
2022/01/05 04:30:12;;;;;;;5.80;1.70;;;;;;;3.37;100.00;99818.63;5044446;28;20199;-70
2022/01/05 04:32:39;;;;;;;18.58;3.88;;;;;;;3.37;100.00;99812.38;5038872;28;20140;-72
2022/01/05 04:35:26;;;;;;;4.85;1.85;;;;;;;3.35;100.00;99820.16;5034996;28;20747;-71
2022/01/05 04:37:54;;;;;;;5.80;1.98;;;;;;;3.32;100.00;99827.16;5041739;28;20041;-71
2022/01/05 04:40:20;;;;;;;6.70;1.90;;;;;;;3.34;100.00;99818.59;5048430;28;20135;-70
2022/01/05 04:42:47;;;;;;;11.30;1.98;;;;;;;3.28;100.00;99818.13;5024371;28;20051;-73
2022/01/05 04:45:13;;;;;;;18.55;4.03;;;;;;;3.31;100.00;99797.47;5042162;28;20051;-72
2022/01/05 04:47:40;;;;;;;16.45;3.53;;;;;;;3.16;100.00;99812.88;5042842;28;20049;-71
2022/01/05 04:50:07;;;;;;;7.18;2.13;;;;;;;3.23;100.00;99812.97;5045403;28;20070;-71
2022/01/05 04:52:34;;;;;;;13.60;3.25;;;;;;;3.28;100.00;99817.34;5024412;28;20572;-70
2022/01/05 04:55:02;;;;;;;14.45;3.47;;;;;;;3.24;100.00;99813.78;5047475;28;20051;-71
2022/01/05 04:57:28;;;;;;;19.02;3.88;;;;;;;3.16;100.00;99820.28;5048509;28;20478;-71
2022/01/05 04:59:55;;;;;;;9.32;2.63;;;;;;;3.16;100.00;99810.16;5044272;28;20119;-70
2022/01/05 05:02:21;;;;;;;12.85;3.63;;;;;;;3.13;100.00;99819.06;5041099;28;20048;-70
2022/01/05 05:04:50;;;;;;;13.88;2.97;;;;;;;3.14;100.00;99820.66;5047114;28;20132;-73
2022/01/05 05:07:17;;;;;;;11.20;2.63;;;;;;;3.14;100.00;99817.91;5036715;28;20521;-71
2022/01/05 05:09:44;;;;;;;4.47;2.15;;;;;;;3.14;100.00;99815.19;5045208;28;20057;-73
2022/01/05 05:12:10;;;;;;;6.22;1.55;;;;;;;3.15;100.00;99821.44;5046808;28;20084;-70
2022/01/05 05:14:37;;;;;;;8.02;2.10;;;;;;;3.13;100.00;99830.00;5036028;28;20046;-71
2022/01/05 05:17:05;;;;;;;13.57;2.75;;;;;;;3.15;100.00;99829.66;5038788;28;20053;-71
2022/01/05 05:19:31;;;;;;;12.70;3.33;;;;;;;3.14;100.00;99825.34;5053701;28;20788;-71
2022/01/05 05:21:58;;;;;;;11.40;2.60;;;;;;;3.09;100.00;99820.97;5029350;28;20135;-72
2022/01/05 05:24:25;;;;;;;10.02;2.58;;;;;;;3.07;100.00;99827.97;5048371;28;20061;-71
2022/01/05 05:26:51;;;;;;;11.52;2.17;;;;;;;3.08;100.00;99835.00;5044025;28;20045;-70
2022/01/05 05:29:18;;;;;;;7.43;2.63;;;;;;;3.07;100.00;99833.44;5033306;28;20164;-72
2022/01/05 05:31:44;;;;;;;13.43;3.00;;;;;;;3.06;100.00;99826.38;5034570;28;20449;-72
2022/01/05 05:34:11;;;;;;;6.35;2.05;;;;;;;3.06;100.00;99829.91;5048582;28;20135;-71
2022/01/05 05:36:38;;;;;;;14.32;4.07;;;;;;;3.03;100.00;99822.44;5037384;28;20061;-71
2022/01/05 05:39:04;;;;;;;6.68;2.38;;;;;;;3.06;100.00;99813.50;5047731;28;20973;-70
2022/01/05 05:41:31;;;;;;;9.18;3.05;;;;;;;3.07;100.00;99827.97;5039081;28;20145;-70
2022/01/05 05:43:57;;;;;;;16.17;3.22;;;;;;;3.01;100.00;99822.03;5039896;28;20049;-70
2022/01/05 05:46:24;;;;;;;3.95;1.17;;;;;;;3.03;100.00;99840.81;5036345;28;20573;-71
2022/01/05 05:48:51;;;;;;;10.88;2.35;;;;;;;3.01;100.00;99832.97;5041585;28;20069;-70
2022/01/05 05:51:17;;;;;;;14.93;4.72;;;;;;;2.87;100.00;99821.81;5038614;28;20053;-71
2022/01/05 05:53:44;;;;;;;15.48;1.80;;;;;;;2.97;100.00;99832.09;5047564;28;20053;-72
2022/01/05 05:56:10;;;;;;;8.43;2.33;;;;;;;2.96;100.00;99829.78;5039448;28;20165;-70
2022/01/05 05:58:37;;;;;;;10.63;3.17;;;;;;;2.90;100.00;99842.94;5044311;28;20049;-70
2022/01/05 06:01:03;;;;;;;12.85;3.38;;;;;;;2.95;100.00;99833.63;5033874;28;20073;-70
2022/01/05 06:03:30;;;;;;;4.18;1.88;;;;;;;2.90;100.00;99842.94;5038900;28;20049;-72
2022/01/05 06:05:57;;;;;;;13.73;2.72;;;;;;;2.92;100.00;99842.56;5045491;28;20511;-71
2022/01/05 06:08:23;;;;;;;16.15;3.05;;;;;;;2.88;100.00;99845.25;5047403;28;20072;-71
2022/01/05 06:10:50;;;;;;;14.40;2.90;;;;;;;2.94;100.00;99849.25;5042413;28;20076;-71
2022/01/05 06:13:16;;;;;;;8.02;3.03;;;;;;;2.94;100.00;99843.00;5041878;28;20144;-71
2022/01/05 06:15:43;;;;;;;11.02;3.40;;;;;;;2.93;100.00;99842.19;5038053;28;20559;-73
2022/01/05 06:18:10;;;;;;;9.98;2.47;;;;;;;2.91;100.00;99839.06;5045455;28;20497;-73
2022/01/05 06:20:36;;;;;;;11.93;3.72;;;;;;;2.90;100.00;99845.66;5052760;28;20049;-71
2022/01/05 06:23:03;;;;;;;7.10;2.55;;;;;;;2.91;100.00;99852.72;5045447;28;20092;-70
2022/01/05 06:25:30;;;;;;;6.95;2.60;;;;;;;2.98;100.00;99857.50;5023459;28;20049;-74
2022/01/05 06:27:56;;;;;;;4.45;2.08;;;;;;;3.00;100.00;99861.44;5035172;28;20143;-70
2022/01/05 06:30:23;;;;;;;14.00;4.43;;;;;;;3.04;100.00;99856.84;5045555;28;20076;-73
2022/01/05 06:32:50;;;;;;;6.97;2.75;;;;;;;3.02;100.00;99863.81;5034055;28;20583;-71
2022/01/05 06:35:19;;;;;;;12.77;4.32;;;;;;;3.04;100.00;99875.97;5044407;28;20049;-70
2022/01/05 06:37:46;;;;;;;11.65;3.10;;;;;;;3.20;100.00;99862.91;5044348;28;20495;-71
2022/01/05 06:40:13;;;;;;;9.13;2.83;;;;;;;3.17;100.00;99863.66;5042773;28;20557;-71
2022/01/05 06:42:39;;;;;;;11.75;3.10;;;;;;;3.17;100.00;99868.34;5035269;28;20122;-71
2022/01/05 06:45:06;;;;;;;20.23;6.03;;;;;;;3.13;100.00;99875.72;5042639;28;20057;-72
2022/01/05 06:47:33;;;;;;;11.50;3.72;;;;;;;3.27;100.00;99868.47;5031931;28;20042;-72
2022/01/05 06:49:59;;;;;;;12.13;3.83;;;;;;;3.27;100.00;99867.72;5041257;28;20530;-74
2022/01/05 06:52:26;;;;;;;10.68;2.78;;;;;;;3.30;100.00;99872.44;5045706;28;20472;-72
2022/01/05 06:54:53;;;;;;;7.10;2.95;;;;;;;3.31;100.00;99882.97;5046386;28;20157;-72
2022/01/05 06:57:20;;;;;;;18.27;4.70;;;;;;;3.25;100.00;99873.53;5047389;28;20132;-73
2022/01/05 06:59:46;;;;;;;18.08;5.70;;;;;;;3.29;100.00;99882.59;5042720;28;20067;-73
2022/01/05 07:02:12;;;;;;;12.45;2.92;;;;;;;3.39;100.00;99878.41;5041739;28;20049;-71
2022/01/05 07:04:39;;;;;;;15.57;3.78;;;;;;;3.38;100.00;99891.31;5039776;28;20525;-72
2022/01/05 07:07:06;;;;;;;14.18;4.47;;;;;;;3.30;100.00;99884.16;5045095;28;20146;-71
2022/01/05 07:09:32;;;;;;;12.88;3.72;;;;;;;3.39;100.00;99881.94;5038177;28;20478;-73
2022/01/05 07:11:59;;;;;;;13.70;4.50;;;;;;;3.39;100.00;99887.41;5041028;28;20045;-73
2022/01/05 07:14:26;;;;;;;14.48;4.00;;;;;;;3.32;100.00;99886.50;5045480;28;20057;-70
2022/01/05 07:16:53;;;;;;;13.52;4.13;;;;;;;3.31;100.00;99890.41;5046023;28;20091;-73
2022/01/05 07:19:20;;;;;;;10.15;3.22;;;;;;;3.44;100.00;99895.28;5060093;28;20063;-73
2022/01/05 07:21:47;;;;;;;28.45;7.03;;;;;;;3.31;100.00;99907.59;5052717;28;20566;-70
2022/01/05 07:24:17;;;;;;;12.23;3.95;;;;;;;3.41;100.00;99898.75;5051768;28;20577;-75
2022/01/05 07:26:44;;;;;;;21.15;5.18;;;;;;;3.45;100.00;99896.88;5042694;28;20084;-72
2022/01/05 07:29:16;;;;;;;19.58;4.35;;;;;;;3.34;100.00;99901.38;5037068;28;20148;-72
2022/01/05 07:31:43;;;;;;;20.85;5.97;;;;;;;3.36;100.00;99901.81;5038538;28;20081;-71
2022/01/05 07:34:11;;;;;;;19.42;5.65;;;;;;;3.42;100.00;99900.34;5049509;28;20142;-70
2022/01/05 07:36:38;;;;;;;21.95;5.75;;;;;;;3.37;100.00;99911.59;5063807;28;20048;-73
2022/01/05 07:39:05;;;;;;;13.48;3.33;;;;;;;3.50;100.00;99909.44;5041527;28;20166;-71
2022/01/05 07:41:33;;;;;;;17.65;4.95;;;;;;;3.43;100.00;99920.25;5052786;28;20061;-75
2022/01/05 07:43:59;;;;;;;12.30;4.78;;;;;;;3.44;100.00;99922.63;5048034;28;20048;-71
2022/01/05 07:46:26;;;;;;;12.23;4.47;;;;;;;3.51;100.00;99924.69;5047595;28;20111;-72
2022/01/05 07:48:52;;;;;;;5.22;2.25;;;;;;;3.54;100.00;99918.50;5030864;28;20059;-71
2022/01/05 07:51:19;;;;;;;7.82;2.40;;;;;;;3.55;100.00;99933.75;5027613;28;20084;-70
2022/01/05 07:53:46;;;;;;;12.02;3.65;;;;;;;3.61;100.00;99932.28;5037583;28;20174;-69
2022/01/05 07:56:13;;;;;;;16.77;3.80;;;;;;;3.59;100.00;99929.91;5048371;28;20045;-71
2022/01/05 07:58:40;;;;;;;8.95;2.63;;;;;;;3.61;100.00;99933.03;5047066;28;20118;-71
2022/01/05 08:01:07;;;;;;;10.45;3.55;;;;;;;3.62;100.00;99940.09;5046979;28;20132;-71
2022/01/05 08:03:34;;;;;;;20.17;5.55;;;;;;;3.60;100.00;99947.88;5049991;28;20135;-72
2022/01/05 08:06:19;;;;;;;15.88;4.75;;;;;;;3.62;100.00;99937.38;5047967;28;20068;-72
2022/01/05 08:08:46;;;;;;;18.52;4.80;;;;;;;3.68;100.00;99926.91;5047828;28;20452;-71
2022/01/05 08:11:12;;;;;;;18.42;5.47;;;;;;;3.66;100.00;99935.47;5043092;28;20084;-70
2022/01/05 08:13:39;;;;;;;15.93;4.28;;;;;;;3.69;100.00;99926.53;5034639;28;20057;-71
2022/01/05 08:16:05;;;;;;;14.65;4.43;;;;;;;3.83;100.00;99921.25;5049291;28;20049;-70
2022/01/05 08:18:32;;;;;;;13.57;3.58;;;;;;;3.77;100.00;99952.00;5057990;28;20048;-71
2022/01/05 08:20:59;;;;;;;24.70;6.07;;;;;;;3.84;100.00;99941.97;5034976;28;20060;-74
2022/01/05 08:23:26;;;;;;;21.63;5.65;;;;;;;3.79;100.00;99928.63;5045587;28;20467;-71
2022/01/05 08:25:56;;;;;;;9.02;2.65;;;;;;;3.90;100.00;99926.81;5043706;28;20111;-70
2022/01/05 08:28:25;;;;;;;18.17;5.70;;;;;;;3.82;100.00;99941.56;5041337;28;20041;-72
2022/01/05 08:30:52;;;;;;;21.38;5.15;;;;;;;3.88;100.00;99955.72;5047147;28;20085;-71
2022/01/05 08:33:19;;;;;;;20.70;4.63;;;;;;;3.93;100.00;99938.94;5043417;28;20052;-73
2022/01/05 08:35:46;;;;;;;18.88;4.63;;;;;;;3.95;100.00;99937.41;5040553;28;20517;-73
2022/01/05 08:38:13;;;;;;;20.77;6.88;;;;;;;4.00;100.00;99931.63;5049200;28;20073;-72
2022/01/05 08:40:41;;;;;;;20.25;5.00;;;;;;;3.99;100.00;99932.78;5046835;28;20067;-72
2022/01/05 08:43:09;;;;;;;4.95;2.50;;;;;;;4.05;100.00;99938.72;5046339;28;20107;-72
2022/01/05 08:45:36;;;;;;;14.25;3.58;;;;;;;4.00;100.00;99934.38;5036566;28;20350;-72
2022/01/05 08:48:03;;;;;;;15.75;5.00;;;;;;;3.99;100.00;99926.53;5056800;28;20153;-73
2022/01/05 08:50:32;;;;;;;19.45;5.35;;;;;;;3.98;100.00;99933.94;5044359;28;20049;-72
2022/01/05 08:53:00;;;;;;;19.30;4.95;;;;;;;3.98;100.00;99919.47;5037002;28;20060;-70
2022/01/05 08:55:31;;;;;;;22.08;5.80;;;;;;;4.03;100.00;99930.88;5044743;28;20464;-70
2022/01/05 08:57:58;;;;;;;15.85;4.00;;;;;;;4.08;100.00;99936.00;5040591;28;20060;-73
2022/01/05 09:00:25;;;;;;;12.13;3.25;;;;;;;4.16;100.00;99931.41;5047632;28;20064;-71
2022/01/05 09:02:51;;;;;;;21.45;6.72;;;;;;;4.04;100.00;99957.09;5044364;28;20076;-71
2022/01/05 09:05:22;;;;;;;22.80;6.05;;;;;;;4.13;100.00;99940.38;5044137;28;20048;-72
2022/01/05 09:07:49;;;;;;;9.00;2.72;;;;;;;4.20;100.00;99937.72;5048394;28;20052;-71
2022/01/05 09:10:16;;;;;;;22.92;5.45;;;;;;;4.18;100.00;99945.50;5045618;28;20056;-72
2022/01/05 09:12:44;;;;;;;10.40;3.67;;;;;;;4.29;100.00;99939.00;5044984;28;20083;-72
2022/01/05 09:15:10;;;;;;;11.45;3.95;;;;;;;4.31;100.00;99953.13;5040544;28;20131;-70
2022/01/05 09:17:37;;;;;;;18.10;5.15;;;;;;;4.27;100.00;99959.72;5051306;28;20431;-72
2022/01/05 09:20:05;;;;;;;9.50;3.80;;;;;;;4.30;100.00;99953.50;5056762;28;20049;-75
2022/01/05 09:22:37;;;;;;;20.75;5.47;;;;;;;4.33;100.00;99939.06;5047637;28;20060;-71
2022/01/05 09:25:06;;;;;;;25.50;8.02;;;;;;;4.26;100.00;99971.84;5048059;28;20055;-72
2022/01/05 09:27:33;;;;;;;23.35;6.38;;;;;;;4.36;100.00;99954.75;5048517;28;20191;-70
2022/01/05 09:30:00;;;;;;;20.98;7.03;;;;;;;4.29;100.00;99939.00;5042624;28;20076;-71
2022/01/05 09:32:26;;;;;;;15.20;5.53;;;;;;;4.29;100.00;99960.13;5043773;28;20080;-72
2022/01/05 09:34:53;;;;;;;25.55;6.97;;;;;;;4.23;100.00;99967.91;5048400;28;20060;-72
2022/01/05 09:37:31;;;;;;;16.77;5.68;;;;;;;4.30;100.00;99959.78;5046583;28;20659;-72
2022/01/05 09:42:43;;;;;;;22.42;7.47;;;;;;;4.28;100.00;99964.81;5040623;28;20876;-72
2022/01/05 09:45:16;;;;;;;22.30;7.50;;;;;;;4.37;100.00;99946.16;5037660;28;20598;-71
2022/01/05 09:48:08;;;;;;;9.65;3.78;;;;;;;4.48;100.00;99949.78;5036569;28;20099;-71
2022/01/05 09:50:38;;;;;;;20.52;7.97;;;;;;;4.40;100.00;99933.66;5042719;28;20505;-71
2022/01/05 09:53:07;;;;;;;17.85;7.40;;;;;;;4.51;100.00;99976.44;5047329;28;20128;-70
2022/01/05 09:55:34;;;;;;;17.67;6.60;;;;;;;4.59;100.00;99955.41;5038587;28;20124;-73
2022/01/05 09:58:01;;;;;;;15.65;5.55;;;;;;;4.57;100.00;99953.03;5044652;28;20072;-72
2022/01/05 10:00:28;;;;;;;21.48;7.97;;;;;;;4.46;100.00;99954.84;5039538;28;20077;-70
2022/01/05 10:02:54;;;;;;;19.45;6.07;;;;;;;4.57;100.00;99942.06;5044028;28;20167;-71
2022/01/05 10:05:21;;;;;;;22.83;8.30;;;;;;;4.41;100.00;99963.41;5041730;28;20087;-71
2022/01/05 10:07:47;;;;;;;21.63;7.60;;;;;;;4.35;100.00;99936.72;5033169;28;20515;-70
2022/01/05 10:10:14;;;;;;;13.60;5.03;;;;;;;4.45;100.00;99949.75;5034564;28;20749;-73
2022/01/05 10:12:46;;;;;;;21.30;4.78;;;;;;;4.39;100.00;99962.22;5027127;28;20050;-70
2022/01/05 10:15:13;;;;;;;21.60;6.70;;;;;;;4.26;100.00;99969.88;5032617;28;20057;-71
2022/01/05 10:17:41;;;;;;;28.05;9.07;;;;;;;4.18;100.00;99973.69;5029656;28;20135;-72
2022/01/05 10:20:10;;;;;;;23.83;5.97;;;;;;;4.23;100.00;99967.91;5029723;28;20063;-73
2022/01/05 10:22:44;;;;;;;22.70;7.38;;;;;;;4.11;100.00;99961.84;5028456;28;20724;-70
2022/01/05 10:25:22;;;;;;;25.88;8.45;;;;;;;4.04;100.00;99965.31;5031543;28;20466;-70
2022/01/05 10:28:00;;;;;;;22.70;6.68;;;;;;;4.05;100.00;99952.41;5028097;28;20563;-70
2022/01/05 10:30:38;;;;;;;16.73;5.88;;;;;;;4.05;100.00;99969.59;5040789;28;20389;-71
2022/01/05 10:33:05;;;;;;;23.10;8.05;;;;;;;4.03;100.00;99965.66;5039007;28;20164;-71
2022/01/05 10:35:32;;;;;;;17.83;6.10;;;;;;;4.12;100.00;99982.63;5030658;28;20124;-73
2022/01/05 10:38:01;;;;;;;27.80;8.00;;;;;;;4.13;100.00;99954.88;5025549;28;20160;-71
2022/01/05 10:40:28;;;;;;;30.10;9.93;;;;;;;4.09;100.00;99942.28;5044454;28;20091;-69
2022/01/05 10:42:56;;;;;;;8.95;3.58;;;;;;;4.25;100.00;99951.88;5033993;28;20056;-72
2022/01/05 10:45:43;;;;;;;19.48;7.22;;;;;;;4.19;100.00;99961.56;5029467;28;20649;-71
2022/01/05 10:48:11;;;;;;;27.10;7.78;;;;;;;4.19;100.00;99952.59;5038661;28;20128;-70
2022/01/05 10:50:38;;;;;;;22.48;7.40;;;;;;;4.24;100.00;99991.38;5038261;28;20140;-70
2022/01/05 10:53:06;;;;;;;18.40;5.00;;;;;;;4.35;100.00;99953.94;5036177;28;20055;-72
2022/01/05 10:55:39;;;;;;;20.17;5.18;;;;;;;4.33;100.00;99953.53;5036684;28;20059;-70
2022/01/05 10:58:10;;;;;;;21.40;7.28;;;;;;;4.25;100.00;99964.78;5046356;28;20076;-71
2022/01/05 11:00:53;;;;;;;20.77;6.25;;;;;;;4.22;100.00;99974.50;5035786;28;20504;-71
2022/01/05 11:03:38;;;;;;;13.25;4.15;;;;;;;4.10;100.00;99971.22;5031883;28;20053;-70
2022/01/05 11:06:11;;;;;;;24.13;7.68;;;;;;;3.95;100.00;99972.22;5036754;28;20064;-72
2022/01/05 11:09:09;;;;;;;20.52;7.53;;;;;;;3.94;100.00;99981.56;5035638;28;20049;-73
2022/01/05 11:11:36;;;;;;;17.35;5.53;;;;;;;3.96;100.00;99993.75;5034638;28;20114;-71
2022/01/05 11:14:08;;;;;;;16.92;6.68;;;;;;;3.93;100.00;99996.41;5046418;28;20817;-72
2022/01/05 11:16:40;;;;;;;17.00;5.63;;;;;;;3.91;100.00;99996.78;5041696;28;20128;-71
2022/01/05 11:19:15;;;;;;;16.13;6.22;;;;;;;3.94;100.00;100009.75;5039424;28;20585;-72
2022/01/05 11:22:01;;;;;;;;;;;;;;;3.91;100.00;100017.91;5033123;28;20045;-71
2022/01/05 11:24:30;;;;;;;16.67;5.93;;;;;;;3.89;100.00;99993.66;5036039;28;19928;-71
2022/01/05 11:26:57;;;;;;;21.80;7.65;;;;;;;3.93;100.00;99999.97;5041529;28;20450;-70
2022/01/05 11:29:24;;;;;;;21.00;8.15;;;;;;;3.86;100.00;99996.31;5041057;28;20049;-73
2022/01/05 11:31:51;;;;;;;15.18;6.75;;;;;;;3.90;100.00;100010.84;5035391;28;20521;-71